Time;durP1;ratioP1;P1;durP2;ratioP2;P2;SDS_P1;SDS_P2;PMS_P1;PMS_P2;Temp;Humidity;BMP_temperature;BMP_pressure;BME280_temperature;BME280_humidity;BME280_pressure;Samples;Min_cycle;Max_cycle;Signal;HPM_P1;HPM_P2
2023/12/16 00:01:33;;;;;;;8.52;4.80;;;5.30;85.40;;;;;;4940332;29;20028;-84
2023/12/16 00:03:58;;;;;;;7.28;5.13;;;5.20;85.30;;;;;;4957233;29;20039;-80
2023/12/16 00:06:24;;;;;;;7.88;4.15;;;5.20;85.40;;;;;;4939914;29;20102;-81
2023/12/16 00:08:50;;;;;;;9.05;5.18;;;5.10;85.30;;;;;;4957204;28;20038;-84
2023/12/16 00:11:16;;;;;;;8.07;4.35;;;5.20;85.40;;;;;;4939968;29;20024;-81
2023/12/16 00:13:41;;;;;;;9.05;4.80;;;5.10;85.50;;;;;;4940175;29;20019;-82
2023/12/16 00:16:07;;;;;;;7.65;4.60;;;5.20;85.50;;;;;;4940226;29;20063;-81
2023/12/16 00:18:35;;;;;;;8.20;5.65;;;5.20;85.70;;;;;;4957079;29;20027;-82
2023/12/16 00:21:00;;;;;;;8.82;6.15;;;5.20;85.70;;;;;;4956721;28;20106;-81
2023/12/16 00:23:26;;;;;;;6.57;5.22;;;5.10;85.80;;;;;;4939522;29;20151;-82
2023/12/16 00:25:51;;;;;;;8.90;6.32;;;5.10;85.90;;;;;;4939872;29;20062;-81
2023/12/16 00:28:17;;;;;;;8.88;6.03;;;5.00;86.00;;;;;;4939382;29;20038;-81
2023/12/16 00:30:43;;;;;;;8.40;5.93;;;4.90;86.10;;;;;;4939491;29;20020;-82
2023/12/16 00:33:08;;;;;;;10.48;6.53;;;4.90;86.10;;;;;;4938999;29;20027;-81
2023/12/16 00:35:34;;;;;;;9.48;6.03;;;4.80;86.20;;;;;;4956621;28;20027;-79
2023/12/16 00:38:00;;;;;;;11.90;6.55;;;4.80;86.40;;;;;;4938904;29;20031;-79
2023/12/16 00:40:27;;;;;;;7.15;5.93;;;4.80;86.40;;;;;;4939469;29;20023;-80
2023/12/16 00:42:53;;;;;;;11.82;5.78;;;4.80;86.40;;;;;;4939345;29;20496;-80
2023/12/16 00:45:19;;;;;;;9.05;4.97;;;4.80;86.30;;;;;;4939330;29;20400;-82
2023/12/16 00:47:44;;;;;;;6.35;4.55;;;4.80;86.20;;;;;;4956424;29;20039;-82
2023/12/16 00:50:12;;;;;;;8.18;4.97;;;4.70;86.40;;;;;;4956685;29;20031;-82
2023/12/16 00:52:37;;;;;;;8.43;6.00;;;4.60;86.40;;;;;;4940053;29;20349;-83
2023/12/16 00:55:03;;;;;;;11.63;6.32;;;4.50;86.70;;;;;;4923633;29;20038;-82
2023/12/16 00:57:30;;;;;;;10.25;6.55;;;4.40;86.90;;;;;;4938846;29;20031;-83
2023/12/16 00:59:57;;;;;;;12.50;6.80;;;4.40;86.90;;;;;;4956643;28;20020;-83
2023/12/16 01:02:23;;;;;;;10.68;6.88;;;4.40;87.00;;;;;;4955839;29;20043;-83
2023/12/16 01:04:49;;;;;;;9.05;6.65;;;4.40;86.80;;;;;;4942364;28;20024;-83
2023/12/16 01:07:17;;;;;;;9.65;6.20;;;4.40;86.70;;;;;;4952503;28;20023;-81
2023/12/16 01:09:42;;;;;;;9.13;6.07;;;4.40;86.60;;;;;;4963853;28;20014;-80
2023/12/16 01:12:09;;;;;;;9.27;5.93;;;4.40;86.50;;;;;;4956672;28;20027;-82
2023/12/16 01:14:35;;;;;;;7.90;5.15;;;4.40;86.20;;;;;;4941623;29;20030;-82
2023/12/16 01:17:01;;;;;;;10.30;5.00;;;4.30;86.30;;;;;;4940437;29;20027;-84
2023/12/16 01:19:26;;;;;;;5.65;4.15;;;4.30;86.20;;;;;;4929553;28;20421;-84
2023/12/16 01:21:52;;;;;;;7.03;4.60;;;4.20;85.80;;;;;;4957838;28;20361;-81
2023/12/16 01:24:18;;;;;;;7.95;4.15;;;4.20;85.70;;;;;;4941714;28;20130;-82
2023/12/16 01:26:43;;;;;;;6.35;4.28;;;4.10;85.60;;;;;;4957401;28;20023;-81
2023/12/16 01:29:09;;;;;;;6.72;4.93;;;4.10;85.80;;;;;;4957615;28;20043;-81
2023/12/16 01:31:35;;;;;;;6.30;4.70;;;4.00;85.80;;;;;;4957212;28;20073;-80
2023/12/16 01:34:01;;;;;;;6.50;4.65;;;4.00;85.90;;;;;;4957466;28;20397;-80
2023/12/16 01:36:26;;;;;;;9.02;5.35;;;4.00;85.90;;;;;;4957984;28;20026;-81
2023/12/16 01:38:52;;;;;;;10.13;4.90;;;4.10;85.70;;;;;;4974940;28;20030;-81
2023/12/16 01:41:18;;;;;;;8.20;5.20;;;4.00;85.40;;;;;;4957659;28;20023;-83
2023/12/16 01:43:43;;;;;;;6.78;4.60;;;4.00;85.50;;;;;;4957728;28;20061;-81
2023/12/16 01:46:10;;;;;;;7.07;4.40;;;4.00;85.40;;;;;;4957591;28;20492;-83
2023/12/16 01:48:35;;;;;;;5.68;3.50;;;3.90;85.40;;;;;;4957456;28;20113;-82
2023/12/16 01:51:02;;;;;;;8.43;4.32;;;3.90;85.40;;;;;;4974739;28;20034;-81
2023/12/16 01:53:29;;;;;;;6.13;4.53;;;3.90;85.40;;;;;;4958099;28;20038;-82
2023/12/16 01:55:55;;;;;;;6.45;3.85;;;3.90;85.50;;;;;;4958155;28;20034;-81
2023/12/16 01:58:23;;;;;;;6.50;4.28;;;3.90;85.40;;;;;;4974976;28;20038;-81
2023/12/16 02:00:51;;;;;;;6.57;3.90;;;3.80;85.30;;;;;;4957635;28;20034;-82
2023/12/16 02:03:19;;;;;;;6.85;3.58;;;3.80;86.00;;;;;;4957401;28;20035;-81
2023/12/16 02:05:44;;;;;;;8.55;3.67;;;3.80;85.10;;;;;;4957672;28;20033;-80
2023/12/16 02:08:10;;;;;;;6.75;3.17;;;3.70;84.90;;;;;;4957256;28;20034;-82
2023/12/16 02:10:38;;;;;;;3.88;2.40;;;3.60;85.00;;;;;;4957386;28;20463;-82
2023/12/16 02:13:07;;;;;;;4.80;2.78;;;3.60;85.10;;;;;;4974558;28;20427;-80
2023/12/16 02:15:32;;;;;;;4.82;2.80;;;3.50;85.10;;;;;;4973925;28;20031;-81
2023/12/16 02:17:58;;;;;;;3.72;2.60;;;3.50;85.30;;;;;;4959566;28;20121;-79
2023/12/16 02:20:24;;;;;;;4.43;2.70;;;3.50;85.20;;;;;;4961387;28;20073;-82
2023/12/16 02:22:50;;;;;;;5.63;2.78;;;3.40;85.10;;;;;;4961032;28;20550;-81
2023/12/16 02:25:17;;;;;;;3.40;2.40;;;3.40;85.10;;;;;;4960997;28;20054;-84
2023/12/16 02:27:45;;;;;;;3.33;2.25;;;3.40;85.10;;;;;;4978117;28;20030;-83
2023/12/16 02:30:14;;;;;;;3.83;2.53;;;3.30;85.10;;;;;;4961161;28;20019;-83
2023/12/16 02:32:41;;;;;;;4.60;2.97;;;3.30;85.20;;;;;;4960977;28;20033;-83
2023/12/16 02:35:07;;;;;;;7.63;3.25;;;3.30;85.10;;;;;;4978099;28;20603;-82
2023/12/16 02:37:32;;;;;;;4.57;2.92;;;3.30;85.20;;;;;;4977715;28;20110;-81
2023/12/16 02:39:58;;;;;;;4.95;2.95;;;3.40;85.20;;;;;;4960724;28;20023;-80
2023/12/16 02:42:23;;;;;;;5.50;3.15;;;3.30;85.20;;;;;;4960848;28;20391;-79
2023/12/16 02:44:49;;;;;;;7.13;3.83;;;3.40;85.20;;;;;;4978107;28;20049;-84
2023/12/16 02:47:15;;;;;;;10.10;4.70;;;3.40;85.00;;;;;;4960622;28;20059;-79
2023/12/16 02:49:40;;;;;;;10.40;4.18;;;3.40;85.10;;;;;;4965754;28;20030;-83
2023/12/16 02:52:06;;;;;;;11.00;5.13;;;3.40;85.10;;;;;;4970352;28;20109;-81
2023/12/16 02:54:34;;;;;;;10.10;6.47;;;3.40;85.00;;;;;;4978179;28;20030;-80
2023/12/16 02:56:59;;;;;;;11.70;7.07;;;3.40;85.10;;;;;;4986576;28;20076;-79
2023/12/16 02:59:25;;;;;;;10.32;6.00;;;3.30;85.20;;;;;;4960765;28;20121;-81
2023/12/16 03:01:50;;;;;;;7.97;4.80;;;3.20;85.40;;;;;;4960670;28;20038;-79
2023/12/16 03:04:16;;;;;;;5.97;4.15;;;3.10;86.00;;;;;;4960170;28;20043;-80
2023/12/16 03:06:43;;;;;;;9.48;4.65;;;3.00;86.40;;;;;;4977568;28;20106;-80
2023/12/16 03:09:09;;;;;;;7.80;4.28;;;3.00;86.60;;;;;;4977808;28;20118;-81
2023/12/16 03:11:34;;;;;;;7.57;4.20;;;2.90;86.80;;;;;;4977773;28;20075;-81
2023/12/16 03:14:00;;;;;;;9.13;4.57;;;2.90;86.90;;;;;;4960623;28;20030;-79
2023/12/16 03:16:25;;;;;;;6.18;3.60;;;2.90;87.00;;;;;;4978512;28;20558;-82
2023/12/16 03:18:51;;;;;;;6.35;4.47;;;2.90;87.00;;;;;;4960175;28;20543;-82
2023/12/16 03:21:16;;;;;;;8.30;4.10;;;3.00;86.80;;;;;;4960495;28;20480;-80
2023/12/16 03:23:42;;;;;;;6.72;4.53;;;3.00;86.70;;;;;;4960172;28;20122;-82
2023/12/16 03:26:08;;;;;;;6.97;4.10;;;3.00;86.40;;;;;;4977473;28;20484;-79
2023/12/16 03:28:34;;;;;;;7.38;4.30;;;3.10;86.40;;;;;;4975892;28;20046;-80
2023/12/16 03:30:59;;;;;;;6.60;4.05;;;3.10;86.00;;;;;;4959662;28;20027;-80
2023/12/16 03:33:25;;;;;;;5.57;4.13;;;3.10;86.00;;;;;;4959860;28;20034;-79
2023/12/16 03:35:50;;;;;;;7.65;3.95;;;3.00;85.80;;;;;;4959472;28;20058;-82
2023/12/16 03:38:16;;;;;;;8.55;4.05;;;3.00;85.80;;;;;;4959637;28;20065;-76
2023/12/16 03:40:41;;;;;;;6.30;3.60;;;3.10;86.10;;;;;;4976892;28;20051;-80
2023/12/16 03:43:07;;;;;;;5.32;3.53;;;3.10;86.00;;;;;;4971700;28;20034;-79
2023/12/16 03:45:33;;;;;;;8.27;4.78;;;3.10;85.80;;;;;;4977830;28;20093;-76
2023/12/16 03:47:58;;;;;;;5.90;4.13;;;3.10;85.40;;;;;;4983959;28;20047;-79
2023/12/16 03:50:24;;;;;;;7.22;4.00;;;3.10;85.40;;;;;;4959204;28;20468;-82
2023/12/16 03:52:49;;;;;;;6.20;3.85;;;3.20;85.30;;;;;;4959544;28;20122;-81
2023/12/16 03:55:15;;;;;;;5.75;3.90;;;3.20;85.90;;;;;;4959397;28;20031;-80
2023/12/16 03:57:40;;;;;;;7.80;4.25;;;3.20;84.60;;;;;;4976386;28;20416;-82
2023/12/16 04:00:08;;;;;;;6.78;3.55;;;3.30;84.40;;;;;;4959377;28;20077;-82
2023/12/16 04:02:33;;;;;;;6.28;4.05;;;3.30;84.20;;;;;;4959108;28;20070;-80
2023/12/16 04:04:59;;;;;;;6.55;4.18;;;3.30;84.00;;;;;;4958975;28;20095;-78
2023/12/16 04:07:25;;;;;;;8.48;5.00;;;3.40;83.90;;;;;;4959048;28;20022;-79
2023/12/16 04:09:50;;;;;;;7.82;4.38;;;3.40;83.60;;;;;;4958646;28;20061;-80
2023/12/16 04:12:16;;;;;;;7.82;4.35;;;3.40;83.60;;;;;;4959113;28;20100;-79
2023/12/16 04:14:41;;;;;;;9.23;4.70;;;3.40;83.50;;;;;;4976296;28;20375;-79
2023/12/16 04:17:07;;;;;;;7.90;4.50;;;3.40;83.50;;;;;;4958628;28;20030;-79
2023/12/16 04:19:33;;;;;;;8.80;4.22;;;3.40;83.60;;;;;;4975686;28;20050;-79
2023/12/16 04:21:58;;;;;;;6.85;3.88;;;3.30;83.70;;;;;;4958442;28;20023;-81
2023/12/16 04:24:24;;;;;;;7.93;4.20;;;3.40;83.90;;;;;;4958734;28;20027;-80
2023/12/16 04:26:50;;;;;;;7.10;4.05;;;3.40;83.90;;;;;;4958470;28;20109;-80
2023/12/16 04:29:15;;;;;;;7.85;5.38;;;3.30;83.90;;;;;;4975203;28;20035;-81
2023/12/16 04:31:41;;;;;;;7.70;5.00;;;3.40;84.00;;;;;;4975441;28;20486;-80
2023/12/16 04:34:07;;;;;;;6.80;4.70;;;3.40;84.10;;;;;;4975651;28;20023;-80
2023/12/16 04:36:33;;;;;;;6.07;4.63;;;3.40;84.20;;;;;;4958590;28;20027;-80
2023/12/16 04:39:00;;;;;;;6.93;4.38;;;3.40;84.30;;;;;;4957836;28;20106;-80
2023/12/16 04:41:25;;;;;;;5.88;4.15;;;3.50;84.50;;;;;;4957888;28;20031;-83
2023/12/16 04:43:53;;;;;;;6.15;4.38;;;3.60;84.40;;;;;;4958349;28;20097;-84
2023/12/16 04:46:22;;;;;;;5.57;3.85;;;3.60;84.40;;;;;;4958366;28;20027;-83
2023/12/16 04:48:48;;;;;;;5.93;3.75;;;3.70;84.40;;;;;;4958305;28;20085;-82
2023/12/16 04:51:13;;;;;;;6.57;3.55;;;3.80;84.30;;;;;;4957829;28;20069;-83
2023/12/16 04:53:39;;;;;;;6.60;4.28;;;3.80;84.30;;;;;;4958516;28;20038;-84
2023/12/16 04:56:05;;;;;;;8.18;3.92;;;3.80;84.20;;;;;;4958637;28;20033;-81
2023/12/16 04:58:31;;;;;;;5.97;4.55;;;3.90;84.20;;;;;;4974857;28;20023;-81
2023/12/16 05:00:57;;;;;;;7.65;4.63;;;3.90;84.20;;;;;;4974672;28;20023;-78
2023/12/16 05:03:23;;;;;;;6.07;4.47;;;3.90;84.30;;;;;;4975028;28;20110;-80
2023/12/16 05:05:48;;;;;;;7.85;4.20;;;3.90;84.30;;;;;;4974875;28;20107;-78
2023/12/16 05:08:14;;;;;;;6.97;4.70;;;3.90;84.40;;;;;;4974789;28;20037;-77
2023/12/16 05:10:40;;;;;;;7.65;4.68;;;3.90;84.00;;;;;;4957915;28;20097;-78
2023/12/16 05:13:09;;;;;;;6.95;4.60;;;3.90;84.20;;;;;;4975033;28;20118;-79
2023/12/16 05:15:37;;;;;;;8.05;4.55;;;3.90;84.20;;;;;;4957416;28;20038;-79
2023/12/16 05:18:02;;;;;;;6.43;4.93;;;3.90;84.20;;;;;;4958008;28;20357;-79
2023/12/16 05:20:28;;;;;;;6.28;4.22;;;3.90;84.20;;;;;;4957872;28;20023;-77
2023/12/16 05:22:53;;;;;;;5.75;3.60;;;3.90;84.90;;;;;;4975302;28;20114;-78
2023/12/16 05:25:19;;;;;;;6.13;4.07;;;4.00;84.10;;;;;;4974839;28;20027;-81
2023/12/16 05:27:44;;;;;;;7.93;4.45;;;4.00;84.10;;;;;;4957395;28;20035;-76
2023/12/16 05:30:11;;;;;;;5.97;3.50;;;4.00;84.10;;;;;;4957630;28;20077;-83
2023/12/16 05:32:36;;;;;;;5.85;4.13;;;3.90;84.20;;;;;;4957904;28;20026;-81
2023/12/16 05:35:02;;;;;;;7.10;4.85;;;3.90;84.20;;;;;;4941470;28;20027;-78
2023/12/16 05:37:28;;;;;;;6.65;4.68;;;4.00;84.20;;;;;;4957164;28;20073;-82
2023/12/16 05:39:53;;;;;;;8.45;4.55;;;4.00;84.30;;;;;;4957919;28;20022;-82
2023/12/16 05:42:19;;;;;;;5.68;4.35;;;4.00;84.40;;;;;;4957905;28;20041;-80
2023/12/16 05:44:44;;;;;;;7.22;4.63;;;4.10;84.50;;;;;;4974415;28;20572;-80
2023/12/16 05:47:10;;;;;;;8.13;5.22;;;4.00;84.30;;;;;;4957474;28;20041;-81
2023/12/16 05:49:35;;;;;;;5.35;4.10;;;4.10;84.50;;;;;;4957250;28;20027;-82
2023/12/16 05:52:01;;;;;;;5.85;4.63;;;4.10;84.50;;;;;;4975200;28;20074;-79
2023/12/16 05:54:27;;;;;;;4.25;3.78;;;4.10;84.40;;;;;;4958240;28;20030;-81
2023/12/16 05:56:53;;;;;;;7.38;4.00;;;4.10;84.50;;;;;;4958248;28;20539;-81
2023/12/16 05:59:19;;;;;;;8.40;3.95;;;4.20;84.40;;;;;;4958572;28;20027;-81
2023/12/16 06:01:44;;;;;;;8.30;4.38;;;4.20;84.30;;;;;;4958263;28;20026;-80
2023/12/16 06:04:10;;;;;;;6.55;4.40;;;4.30;84.30;;;;;;4959009;28;20046;-81
2023/12/16 06:06:35;;;;;;;7.65;5.10;;;4.30;84.20;;;;;;4960342;28;20031;-80
2023/12/16 06:09:01;;;;;;;6.10;4.57;;;4.30;84.30;;;;;;4967941;28;20179;-82
2023/12/16 06:11:27;;;;;;;5.18;4.57;;;4.30;84.20;;;;;;4974917;28;20073;-83
2023/12/16 06:13:52;;;;;;;5.32;4.45;;;4.30;84.20;;;;;;4957555;28;20027;-81
2023/12/16 06:16:18;;;;;;;5.65;4.20;;;4.30;84.20;;;;;;4959258;28;20031;-80
2023/12/16 06:18:45;;;;;;;4.68;4.20;;;4.30;84.30;;;;;;4993584;28;20043;-80
2023/12/16 06:21:10;;;;;;;5.75;3.78;;;4.30;84.10;;;;;;4995350;28;20504;-79
2023/12/16 06:23:36;;;;;;;5.05;4.43;;;4.30;84.10;;;;;;4985100;28;20039;-80
2023/12/16 06:26:01;;;;;;;4.82;4.00;;;4.30;84.00;;;;;;4959054;28;20019;-82
2023/12/16 06:28:27;;;;;;;6.30;4.63;;;4.40;83.90;;;;;;4958844;28;20475;-82
2023/12/16 06:30:54;;;;;;;5.55;3.92;;;4.40;83.50;;;;;;4957561;28;20029;-82
2023/12/16 06:33:22;;;;;;;5.50;4.03;;;4.30;83.50;;;;;;4957215;28;20154;-82
2023/12/16 06:35:48;;;;;;;4.90;3.70;;;4.30;83.80;;;;;;4973946;28;20341;-82
2023/12/16 06:38:13;;;;;;;7.28;4.38;;;4.30;83.80;;;;;;4974348;28;20480;-81
2023/12/16 06:40:39;;;;;;;5.03;3.92;;;4.30;83.80;;;;;;4956737;28;20066;-80
2023/12/16 06:43:05;;;;;;;5.30;4.03;;;4.30;83.80;;;;;;4957018;28;20035;-80
2023/12/16 06:45:31;;;;;;;5.32;4.40;;;4.30;83.90;;;;;;4974149;28;20026;-80
2023/12/16 06:47:58;;;;;;;6.60;5.40;;;4.30;83.80;;;;;;4973804;28;20504;-80
2023/12/16 06:50:24;;;;;;;7.38;6.00;;;4.30;84.50;;;;;;4940595;28;20031;-79
2023/12/16 06:52:50;;;;;;;8.13;5.38;;;4.30;83.70;;;;;;4956106;28;20081;-79
2023/12/16 06:55:15;;;;;;;8.18;4.93;;;4.20;83.90;;;;;;4956936;28;20054;-78
2023/12/16 06:57:41;;;;;;;6.93;5.05;;;4.20;84.20;;;;;;4956745;28;20027;-80
2023/12/16 07:00:08;;;;;;;5.03;4.25;;;4.20;84.30;;;;;;4957021;28;20461;-79
2023/12/16 07:02:33;;;;;;;6.68;4.72;;;4.20;84.20;;;;;;4958419;28;20035;-78
2023/12/16 07:04:59;;;;;;;5.40;4.13;;;4.30;84.20;;;;;;4962509;28;20049;-80
2023/12/16 07:07:25;;;;;;;4.97;3.90;;;4.20;83.70;;;;;;4986302;28;20080;-81
2023/12/16 07:09:51;;;;;;;6.25;4.00;;;4.10;83.70;;;;;;4977759;28;20054;-79
2023/12/16 07:12:17;;;;;;;6.38;4.30;;;4.10;83.80;;;;;;4977708;28;20459;-79
2023/12/16 07:14:43;;;;;;;10.18;7.18;;;4.20;84.00;;;;;;4978585;28;20066;-82
2023/12/16 07:17:09;;;;;;;6.18;4.80;;;4.10;83.70;;;;;;4960347;28;20189;-79
2023/12/16 07:19:34;;;;;;;8.85;5.72;;;3.90;83.60;;;;;;4977420;28;20023;-82
2023/12/16 07:22:01;;;;;;;7.72;5.45;;;3.80;84.00;;;;;;4978085;28;20019;-80
2023/12/16 07:24:26;;;;;;;7.47;5.03;;;3.80;84.40;;;;;;4977527;28;20048;-82
2023/12/16 07:26:52;;;;;;;8.80;5.90;;;3.70;84.50;;;;;;4977105;28;20035;-80
2023/12/16 07:29:17;;;;;;;6.22;5.30;;;3.70;84.60;;;;;;4977396;28;20479;-80
2023/12/16 07:31:49;;;;;;;7.50;5.38;;;3.70;84.70;;;;;;4977072;28;20073;-80
2023/12/16 07:34:15;;;;;;;6.05;4.82;;;3.80;84.70;;;;;;4977091;28;20019;-79
2023/12/16 07:36:40;;;;;;;6.40;4.32;;;3.80;84.70;;;;;;4959733;28;20109;-79
2023/12/16 07:39:06;;;;;;;8.05;5.05;;;3.70;85.50;;;;;;4978102;28;20031;-82
2023/12/16 07:41:34;;;;;;;11.10;6.65;;;3.70;84.60;;;;;;4960210;28;20154;-81
2023/12/16 07:43:59;;;;;;;12.82;7.53;;;3.70;84.60;;;;;;4959688;28;20518;-78
2023/12/16 07:46:25;;;;;;;11.55;7.40;;;3.70;84.20;;;;;;4976701;28;20023;-82
2023/12/16 07:48:51;;;;;;;12.43;7.15;;;3.60;84.00;;;;;;4976722;28;20070;-81
2023/12/16 07:51:18;;;;;;;10.43;7.43;;;3.60;84.00;;;;;;4959283;28;20026;-88
2023/12/16 07:53:46;;;;;;;12.77;7.57;;;3.60;84.00;;;;;;4976007;28;20038;-82
2023/12/16 07:56:22;;;;;;;11.80;7.93;;;3.60;84.20;;;;;;4958819;28;20027;-80
2023/12/16 07:58:49;;;;;;;8.95;5.95;;;3.60;84.00;;;;;;4958793;28;20468;-81
2023/12/16 08:01:15;;;;;;;8.45;6.30;;;3.60;83.60;;;;;;4975641;28;20117;-81
2023/12/16 08:03:41;;;;;;;7.80;6.05;;;3.70;83.70;;;;;;4958758;28;20039;-80
2023/12/16 08:06:10;;;;;;;8.85;5.90;;;3.70;83.60;;;;;;4976169;28;20460;-79
2023/12/16 08:08:37;;;;;;;7.45;5.13;;;3.80;83.40;;;;;;4958738;28;20118;-82
2023/12/16 08:11:04;;;;;;;6.90;6.10;;;3.90;83.10;;;;;;4976173;28;20031;-82
2023/12/16 08:13:32;;;;;;;8.77;6.90;;;4.00;82.70;;;;;;4959025;28;20035;-79
2023/12/16 08:15:59;;;;;;;10.77;7.35;;;4.10;82.60;;;;;;4958343;28;20029;-81
2023/12/16 08:18:26;;;;;;;9.73;7.43;;;4.20;82.20;;;;;;4959406;28;20514;-89
2023/12/16 08:21:06;;;;;;;19.77;10.20;;;4.30;81.90;;;;;;4930137;28;20038;-85
2023/12/16 08:23:36;;;;;;;16.38;10.70;;;4.80;91.60;;;;;;4961765;28;20043;-85
2023/12/16 08:26:10;;;;;;;8.90;6.07;;;5.20;90.20;;;;;;4943542;28;20026;-84
2023/12/16 08:28:40;;;;;;;8.52;6.57;;;5.30;85.70;;;;;;4976356;28;20038;-86
2023/12/16 08:34:15;;;;;;;9.35;6.50;;;5.60;80.20;;;;;;5001540;23;20527;-84
2023/12/16 08:36:41;;;;;;;6.53;4.80;;;5.70;78.70;;;;;;4940453;29;20031;-84
2023/12/16 08:39:07;;;;;;;6.65;4.97;;;5.90;78.10;;;;;;4958780;29;20436;-86
2023/12/16 08:41:32;;;;;;;5.18;4.28;;;6.10;77.30;;;;;;4951399;29;20055;-85
2023/12/16 08:46:29;;;;;;;4.43;3.72;;;6.60;75.40;;;;;;4967868;28;20043;-83
2023/12/16 08:48:55;;;;;;;5.85;4.07;;;6.90;74.10;;;;;;4950316;29;20023;-85
2023/12/16 08:51:22;;;;;;;3.92;3.40;;;7.10;72.90;;;;;;4939540;29;20439;-82
2023/12/16 08:53:48;;;;;;;6.15;3.47;;;7.20;70.70;;;;;;4957802;28;20495;-85
2023/12/16 08:56:14;;;;;;;6.10;3.45;;;7.30;70.40;;;;;;4961070;28;20035;-80
2023/12/16 08:58:39;;;;;;;6.10;3.38;;;7.40;70.10;;;;;;4965667;28;20071;-79
2023/12/16 09:01:06;;;;;;;4.93;3.08;;;7.50;70.10;;;;;;4974250;29;20047;-76
2023/12/16 09:03:36;;;;;;;4.28;3.20;;;7.70;69.90;;;;;;4955603;29;20031;-81
2023/12/16 09:06:02;;;;;;;4.90;3.08;;;8.00;68.80;;;;;;4938979;29;20050;-81
2023/12/16 09:08:27;;;;;;;3.38;2.88;;;8.20;67.30;;;;;;4955697;28;20031;-82
2023/12/16 09:10:53;;;;;;;3.90;3.33;;;8.50;66.30;;;;;;4938578;29;20027;-81
2023/12/16 09:13:18;;;;;;;5.18;3.38;;;8.70;64.60;;;;;;4938103;29;20027;-79
2023/12/16 09:15:44;;;;;;;3.97;2.78;;;9.00;63.10;;;;;;4955757;29;20034;-81
2023/12/16 09:18:15;;;;;;;5.25;3.22;;;9.20;61.70;;;;;;4956085;28;20027;-79
2023/12/16 09:20:41;;;;;;;4.50;3.40;;;9.40;60.50;;;;;;4938470;29;20512;-79
2023/12/16 09:23:06;;;;;;;4.78;4.00;;;9.40;60.30;;;;;;4955458;29;20039;-77
2023/12/16 09:25:32;;;;;;;3.72;2.88;;;9.50;59.00;;;;;;4938314;29;20020;-81
2023/12/16 09:27:57;;;;;;;6.50;5.38;;;9.60;59.30;;;;;;4954628;28;20043;-81
2023/12/16 09:30:23;;;;;;;5.95;5.32;;;9.70;59.00;;;;;;4955331;28;20043;-80
2023/12/16 09:32:48;;;;;;;7.30;6.47;;;9.70;58.10;;;;;;4955722;28;20380;-81
2023/12/16 09:35:14;;;;;;;9.77;7.50;;;9.90;57.90;;;;;;4955268;28;20081;-78
2023/12/16 09:37:39;;;;;;;7.50;5.97;;;10.00;57.20;;;;;;4955037;29;20023;-78
2023/12/16 09:40:06;;;;;;;7.63;5.53;;;10.10;57.50;;;;;;4937812;29;20027;-79
2023/12/16 09:42:38;;;;;;;7.80;4.60;;;10.10;57.00;;;;;;4954907;29;20058;-82
2023/12/16 09:45:04;;;;;;;5.30;4.18;;;10.20;56.70;;;;;;4938080;29;20067;-77
2023/12/16 09:47:30;;;;;;;4.25;3.75;;;10.30;56.00;;;;;;4955300;29;20027;-78
2023/12/16 09:50:00;;;;;;;5.22;4.13;;;10.40;55.30;;;;;;4938260;29;20042;-78
2023/12/16 09:52:26;;;;;;;4.60;4.03;;;10.50;55.20;;;;;;4955329;29;20023;-78
2023/12/16 09:54:52;;;;;;;4.97;4.05;;;10.60;55.30;;;;;;4955990;28;20035;-84
2023/12/16 09:57:19;;;;;;;3.85;3.30;;;10.80;54.70;;;;;;4938175;29;20491;-79
2023/12/16 09:59:46;;;;;;;3.88;2.80;;;10.90;54.10;;;;;;4955643;28;20055;-77
2023/12/16 10:02:29;;;;;;;2.45;2.00;;;11.20;53.80;;;;;;4955558;28;20154;-86
2023/12/16 10:04:57;;;;;;;2.40;2.20;;;11.30;52.30;;;;;;4940007;29;20054;-86
2023/12/16 10:07:23;;;;;;;2.25;2.05;;;11.40;51.90;;;;;;4938560;29;20381;-87
2023/12/16 10:09:49;;;;;;;2.30;1.90;;;11.60;51.20;;;;;;4922550;29;20031;-78
2023/12/16 10:12:14;;;;;;;2.38;1.80;;;11.70;50.50;;;;;;4938617;29;20514;-80
2023/12/16 10:14:48;;;;;;;1.75;1.65;;;11.80;49.40;;;;;;4955848;28;20035;-80
2023/12/16 10:17:18;;;;;;;2.17;1.98;;;12.10;49.30;;;;;;4955813;29;20034;-87
2023/12/16 10:19:44;;;;;;;3.53;2.75;;;12.30;47.50;;;;;;4937926;29;20031;-78
2023/12/16 10:22:12;;;;;;;3.25;1.67;;;12.40;47.40;;;;;;4955535;29;20031;-77
2023/12/16 10:24:40;;;;;;;2.42;1.60;;;12.70;47.00;;;;;;4971843;28;20121;-80
2023/12/16 10:27:07;;;;;;;2.17;1.98;;;12.90;45.80;;;;;;4961050;28;20583;-85
2023/12/16 10:29:33;;;;;;;3.22;1.60;;;13.10;45.80;;;;;;4939888;29;20059;-88
2023/12/16 10:31:59;;;;;;;2.35;1.60;;;13.30;44.10;;;;;;4941144;29;20020;-86
2023/12/16 10:34:31;;;;;;;1.33;1.17;;;13.50;43.10;;;;;;4920354;29;20024;-81
2023/12/16 10:37:06;;;;;;;1.77;1.50;;;13.80;42.40;;;;;;4920200;29;20035;-87
2023/12/16 10:39:32;;;;;;;;;;;14.20;41.50;;;;;;4922676;29;20114;-79
2023/12/16 10:41:58;;;;;;;;;;;14.40;39.60;;;;;;4938555;29;20005;-84
2023/12/16 10:44:25;;;;;;;3.67;1.50;;;14.60;39.10;;;;;;4938368;29;19924;-87
2023/12/16 10:46:55;;;;;;;2.17;1.80;;;14.60;39.90;;;;;;4923141;29;20381;-84
2023/12/16 10:49:31;;;;;;;1.30;1.20;;;14.60;38.70;;;;;;4939981;29;20028;-78
2023/12/16 10:52:10;;;;;;;2.53;1.70;;;14.90;38.50;;;;;;4921899;29;20027;-83
2023/12/16 10:54:40;;;;;;;2.55;2.35;;;15.10;37.60;;;;;;4922136;29;20067;-83
2023/12/16 10:57:26;;;;;;;2.92;2.60;;;15.60;37.20;;;;;;4936289;29;20133;-78
2023/12/16 11:00:03;;;;;;;3.78;2.58;;;16.00;36.60;;;;;;4940624;29;20027;-79
2023/12/16 11:02:31;;;;;;;4.10;2.40;;;16.50;35.80;;;;;;4940289;29;20118;-79
2023/12/16 11:05:22;;;;;;;2.40;2.20;;;17.30;34.70;;;;;;4957777;29;20480;-80
2023/12/16 11:07:51;;;;;;;3.58;1.92;;;18.20;33.10;;;;;;4927098;29;20035;-80
2023/12/16 11:10:18;;;;;;;2.17;1.95;;;19.10;30.50;;;;;;4940828;29;20037;-83
2023/12/16 11:12:45;;;;;;;2.05;1.80;;;19.80;29.00;;;;;;4940909;29;20027;-81
2023/12/16 11:15:12;;;;;;;3.90;2.10;;;20.60;28.50;;;;;;4946880;29;20046;-75
2023/12/16 11:17:52;;;;;;;2.08;1.90;;;21.30;26.60;;;;;;4964671;29;20166;-75
2023/12/16 11:20:21;;;;;;;2.38;2.13;;;22.00;26.40;;;;;;4968131;29;20011;-76
2023/12/16 11:22:51;;;;;;;2.97;2.08;;;22.80;23.90;;;;;;4961217;28;20543;-84
2023/12/16 11:25:18;;;;;;;4.38;3.65;;;23.20;21.40;;;;;;4957771;28;20031;-84
2023/12/16 11:27:49;;;;;;;4.30;3.67;;;23.80;20.00;;;;;;4941010;29;20559;-84
2023/12/16 11:30:16;;;;;;;3.90;2.67;;;23.00;21.30;;;;;;4940285;29;20027;-81
2023/12/16 11:32:44;;;;;;;3.63;2.65;;;22.80;20.10;;;;;;4957335;29;20041;-79
2023/12/16 11:35:13;;;;;;;2.13;1.20;;;23.30;20.10;;;;;;4957233;28;20028;-79
2023/12/16 11:37:38;;;;;;;3.38;1.73;;;24.00;19.50;;;;;;4957518;29;20027;-82
2023/12/16 11:40:07;;;;;;;2.25;1.70;;;24.70;18.00;;;;;;4940170;29;20341;-80
2023/12/16 11:42:48;;;;;;;1.88;1.40;;;25.30;17.70;;;;;;4959876;29;20106;-76
2023/12/16 11:45:39;;;;;;;0.80;0.60;;;26.00;16.30;;;;;;4943340;29;20278;-78
2023/12/16 11:48:09;;;;;;;0.73;0.68;;;26.50;15.00;;;;;;4951418;29;20141;-77
2023/12/16 11:50:37;;;;;;;1.45;0.90;;;26.60;14.60;;;;;;4967364;28;20031;-83
2023/12/16 11:53:03;;;;;;;1.13;1.00;;;27.30;14.30;;;;;;4942692;29;20030;-84
2023/12/16 11:55:29;;;;;;;1.13;0.95;;;27.90;13.70;;;;;;4944558;29;20401;-83
2023/12/16 11:57:55;;;;;;;0.90;0.75;;;28.20;13.00;;;;;;4965971;29;20408;-85
2023/12/16 12:00:22;;;;;;;0.85;0.85;;;28.50;12.90;;;;;;4961996;28;20031;-84
2023/12/16 12:02:51;;;;;;;0.55;0.40;;;28.70;12.60;;;;;;4958345;29;20084;-84
2023/12/16 12:05:20;;;;;;;2.70;0.90;;;29.00;12.90;;;;;;4941265;29;20030;-86
2023/12/16 12:07:45;;;;;;;2.40;1.90;;;29.50;11.90;;;;;;4958355;28;20035;-86
2023/12/16 12:10:11;;;;;;;5.65;5.05;;;30.00;11.70;;;;;;4940726;29;20062;-84
2023/12/16 12:12:37;;;;;;;2.75;1.48;;;30.60;10.80;;;;;;4957745;28;20031;-85
2023/12/16 12:15:04;;;;;;;0.75;0.68;;;31.20;10.80;;;;;;4941052;29;20027;-84
2023/12/16 12:17:30;;;;;;;0.73;0.73;;;31.60;10.20;;;;;;4941571;29;20023;-88
2023/12/16 12:19:56;;;;;;;1.60;1.50;;;32.40;10.10;;;;;;4942412;29;20405;-87
2023/12/16 12:22:22;;;;;;;0.70;0.70;;;33.10;9.50;;;;;;4960420;29;20027;-84
2023/12/16 12:24:48;;;;;;;1.00;0.85;;;32.70;8.50;;;;;;4957420;29;20059;-79
2023/12/16 12:27:13;;;;;;;0.80;0.80;;;31.20;9.50;;;;;;4956918;29;20082;-82
2023/12/16 12:29:59;;;;;;;1.20;1.08;;;30.10;11.20;;;;;;4939718;29;20050;-83
2023/12/16 12:32:27;;;;;;;1.50;1.02;;;30.70;10.80;;;;;;4939208;29;20031;-83
2023/12/16 12:35:13;;;;;;;4.40;3.92;;;30.40;10.50;;;;;;4939306;29;20055;-84
2023/12/16 12:37:41;;;;;;;8.75;7.85;;;31.10;10.60;;;;;;4956467;29;20028;-79
2023/12/16 12:40:12;;;;;;;1.77;1.67;;;31.80;10.50;;;;;;4956353;28;20031;-80
2023/12/16 12:42:50;;;;;;;2.53;1.50;;;32.60;9.70;;;;;;4939080;29;20027;-79
2023/12/16 12:45:36;;;;;;;2.47;1.98;;;32.90;8.80;;;;;;4935995;29;20134;-83
2023/12/16 12:48:11;;;;;;;2.53;1.63;;;32.70;8.50;;;;;;4935791;29;20524;-83
2023/12/16 12:50:37;;;;;;;2.50;1.20;;;32.60;8.90;;;;;;4935988;29;20051;-82
2023/12/16 12:53:20;;;;;;;3.42;0.98;;;32.60;8.50;;;;;;4936064;29;20422;-83
2023/12/16 12:55:48;;;;;;;1.30;1.20;;;32.10;9.40;;;;;;4935973;29;20114;-82
2023/12/16 12:58:17;;;;;;;1.55;0.80;;;32.20;9.50;;;;;;4936060;29;20135;-81
2023/12/16 13:01:09;;;;;;;2.35;1.10;;;32.70;8.90;;;;;;4938348;29;20035;-80